createdAt,value
2018-12-12T00:02:12.503Z,5.04
2018-12-12T00:07:09.856Z,4.94
2018-12-12T00:12:05.886Z,4.95
2018-12-12T00:17:01.937Z,4.85
2018-12-12T00:21:57.979Z,4.77
2018-12-12T00:26:54.012Z,4.77
2018-12-12T00:31:51.655Z,4.89
2018-12-12T00:36:47.822Z,4.90
2018-12-12T00:41:43.888Z,5.00
2018-12-12T00:46:40.342Z,4.78
2018-12-12T00:51:36.529Z,4.79
2018-12-12T00:56:32.552Z,4.75
2018-12-12T01:01:28.593Z,4.94
2018-12-12T01:06:24.636Z,5.06
2018-12-12T01:11:27.090Z,4.93
2018-12-12T01:16:23.117Z,4.47
2018-12-12T01:21:19.189Z,4.25
2018-12-12T01:26:15.217Z,4.09
2018-12-12T01:31:11.264Z,3.98
2018-12-12T01:36:07.416Z,4.12
2018-12-12T01:41:03.482Z,4.76
2018-12-12T01:46:00.990Z,4.26
2018-12-12T01:50:57.007Z,4.36
2018-12-12T01:55:53.090Z,4.81
2018-12-12T02:00:49.129Z,4.73
2018-12-12T02:05:45.146Z,4.65
2018-12-12T02:10:41.306Z,4.51
2018-12-12T02:15:37.343Z,4.75
2018-12-12T02:20:33.352Z,4.74
2018-12-12T02:25:29.377Z,4.65
2018-12-12T02:30:25.411Z,4.55
2018-12-12T02:35:21.511Z,4.43
2018-12-12T02:40:17.555Z,4.21
2018-12-12T02:45:13.593Z,4.13
2018-12-12T02:50:09.621Z,4.57
2018-12-12T02:55:05.765Z,4.32
2018-12-12T03:00:02.132Z,4.40
2018-12-12T03:04:58.158Z,4.69
2018-12-12T03:09:54.181Z,4.69
2018-12-12T03:14:50.227Z,4.67
2018-12-12T03:19:46.293Z,4.61
2018-12-12T03:24:42.335Z,4.55
2018-12-12T03:29:38.372Z,4.46
2018-12-12T03:34:34.435Z,4.29
2018-12-12T03:39:31.646Z,4.30
2018-12-12T03:44:27.664Z,4.28
2018-12-12T03:49:23.779Z,4.38
2018-12-12T03:54:19.826Z,4.27
2018-12-12T03:59:15.840Z,4.35
2018-12-12T04:04:11.853Z,4.17
2018-12-12T04:09:07.929Z,4.14
2018-12-12T04:14:03.948Z,4.12
2018-12-12T04:19:00.193Z,3.55
2018-12-12T04:23:56.213Z,3.40
2018-12-12T04:28:52.229Z,3.41
2018-12-12T04:33:48.333Z,3.60
2018-12-12T04:38:44.368Z,4.09
2018-12-12T04:43:40.391Z,4.14
2018-12-12T04:48:36.429Z,3.84
2018-12-12T04:53:32.451Z,3.82
2018-12-12T04:58:28.485Z,3.77
2018-12-12T05:03:24.592Z,3.80
2018-12-12T05:08:20.613Z,3.59
2018-12-12T05:13:16.669Z,3.64
2018-12-12T05:18:12.701Z,4.09
2018-12-12T05:23:08.766Z,3.89
2018-12-12T05:28:04.885Z,3.66
2018-12-12T05:33:00.926Z,3.87
2018-12-12T05:37:56.940Z,3.42
2018-12-12T05:42:52.982Z,3.49
2018-12-12T05:47:49.001Z,3.68
2018-12-12T05:52:45.021Z,3.41
2018-12-12T05:57:41.044Z,3.89
2018-12-12T06:02:37.802Z,3.83
2018-12-12T06:07:33.809Z,3.61
2018-12-12T06:12:29.814Z,4.03
2018-12-12T06:17:25.978Z,4.01
2018-12-12T06:22:22.353Z,4.10
2018-12-12T06:27:18.389Z,3.98
2018-12-12T06:32:19.362Z,4.13
2018-12-12T06:37:15.390Z,4.11
2018-12-12T06:42:11.468Z,3.93
2018-12-12T06:47:07.529Z,3.95
2018-12-12T06:52:03.573Z,3.76
2018-12-12T06:56:59.597Z,4.05
2018-12-12T07:01:59.239Z,3.95
2018-12-12T07:06:56.459Z,3.89
2018-12-12T07:11:52.539Z,3.80
2018-12-12T07:16:48.586Z,3.68
2018-12-12T07:21:44.648Z,3.96
2018-12-12T07:26:40.714Z,3.86
2018-12-12T07:31:38.526Z,3.99
2018-12-12T07:36:34.740Z,3.96
2018-12-12T07:41:31.210Z,3.82
2018-12-12T07:46:27.947Z,3.70
2018-12-12T07:51:24.137Z,3.68
2018-12-12T07:56:20.211Z,3.72
2018-12-12T08:01:16.292Z,3.75
2018-12-12T08:06:12.384Z,3.99
2018-12-12T08:11:08.416Z,3.97
2018-12-12T08:16:04.789Z,4.01
2018-12-12T08:21:00.877Z,4.04
2018-12-12T08:25:56.946Z,4.03
2018-12-12T08:30:53.166Z,4.03
2018-12-12T08:35:49.257Z,4.10
2018-12-12T08:40:45.361Z,4.08
2018-12-12T08:45:41.433Z,4.11
2018-12-12T08:50:37.514Z,4.15
2018-12-12T08:55:33.921Z,4.23
2018-12-12T09:00:29.976Z,4.31
2018-12-12T09:05:26.020Z,4.06
2018-12-12T09:10:22.091Z,4.17
2018-12-12T09:15:18.147Z,4.17
2018-12-12T09:20:14.194Z,4.07
2018-12-12T09:25:10.278Z,4.03
2018-12-12T09:30:06.538Z,4.10
2018-12-12T09:35:03.659Z,4.18
2018-12-12T09:39:59.740Z,4.40
2018-12-12T09:44:55.785Z,4.47
2018-12-12T09:49:51.863Z,4.50
2018-12-12T09:54:47.893Z,4.62
2018-12-12T09:59:43.949Z,4.85
2018-12-12T10:04:40.122Z,4.79
2018-12-12T10:09:36.262Z,4.80
2018-12-12T10:14:32.306Z,5.01
2018-12-12T10:19:28.417Z,4.98
2018-12-12T10:24:24.683Z,5.01
2018-12-12T10:29:20.758Z,5.28
2018-12-12T10:34:16.859Z,5.11
2018-12-12T10:39:12.902Z,5.23
2018-12-12T10:44:08.990Z,5.06
2018-12-12T10:49:05.085Z,5.14
2018-12-12T10:54:01.253Z,5.21
2018-12-12T10:58:57.416Z,5.24
2018-12-12T11:03:53.675Z,5.41
2018-12-12T11:08:49.725Z,5.27
2018-12-12T11:13:45.770Z,5.42
2018-12-12T11:18:41.858Z,5.34
2018-12-12T11:23:37.973Z,4.98
2018-12-12T11:28:34.074Z,4.88
2018-12-12T11:33:30.280Z,5.27
2018-12-12T11:38:26.617Z,5.53
2018-12-12T11:43:22.759Z,6.06
2018-12-12T11:48:18.834Z,5.78
2018-12-12T11:53:15.075Z,5.91
2018-12-12T11:58:11.225Z,5.73
2018-12-12T12:03:07.832Z,6.24
2018-12-12T12:08:04.182Z,6.00
2018-12-12T12:13:00.391Z,6.05
2018-12-12T12:17:56.625Z,6.32
2018-12-12T12:22:52.852Z,5.97
2018-12-12T12:27:50.142Z,6.10
2018-12-12T12:32:47.405Z,5.77
2018-12-12T12:37:43.931Z,5.58
2018-12-12T12:42:40.006Z,6.02
2018-12-12T12:47:36.104Z,5.91
2018-12-12T12:52:32.186Z,6.11
2018-12-12T12:57:28.242Z,5.69
2018-12-12T13:02:25.168Z,6.33
2018-12-12T13:07:21.246Z,6.04
2018-12-12T13:12:17.366Z,6.01
2018-12-12T13:17:13.569Z,5.61
2018-12-12T13:22:09.618Z,5.99
2018-12-12T13:27:05.787Z,5.91
2018-12-12T13:32:03.447Z,6.30
2018-12-12T13:37:00.905Z,6.07
2018-12-12T13:41:59.706Z,5.74
2018-12-12T13:46:58.781Z,5.83
2018-12-12T13:51:56.783Z,5.88
2018-12-12T13:56:53.016Z,5.48
2018-12-12T14:01:51.208Z,5.57
2018-12-12T14:06:47.437Z,5.68
2018-12-12T14:11:43.472Z,5.51
2018-12-12T14:16:39.518Z,5.52
2018-12-12T14:21:35.587Z,5.52
2018-12-12T14:26:31.645Z,5.49
2018-12-12T14:31:27.723Z,5.40
2018-12-12T14:36:23.841Z,5.38
2018-12-12T14:41:19.955Z,5.27
2018-12-12T14:46:15.953Z,5.11
2018-12-12T14:51:12.025Z,4.87
2018-12-12T14:56:08.071Z,4.79
2018-12-12T15:01:04.157Z,4.76
2018-12-12T15:06:00.219Z,4.65
2018-12-12T15:10:56.264Z,4.66
2018-12-12T15:15:52.334Z,4.70
2018-12-12T15:20:48.365Z,4.57
2018-12-12T15:25:44.392Z,4.56
2018-12-12T15:30:41.106Z,4.45
2018-12-12T15:35:37.337Z,4.41
2018-12-12T15:40:33.469Z,4.47
2018-12-12T15:45:29.547Z,4.45
2018-12-12T15:55:32.456Z,4.38
2018-12-12T16:00:28.992Z,4.38
2018-12-12T16:05:26.178Z,4.12
2018-12-12T16:10:22.232Z,4.05
2018-12-12T16:15:18.269Z,4.04
2018-12-12T16:20:14.445Z,3.93
2018-12-12T16:25:10.523Z,4.02
2018-12-12T16:30:06.709Z,3.87
2018-12-12T16:35:03.068Z,3.77
2018-12-12T16:39:59.170Z,3.51
2018-12-12T16:44:55.224Z,3.63
2018-12-12T16:49:51.433Z,3.38
2018-12-12T16:54:47.533Z,3.28
2018-12-12T16:59:43.573Z,3.33
2018-12-12T17:04:39.608Z,3.39
2018-12-12T17:09:35.645Z,3.50
2018-12-12T17:14:31.681Z,3.71
2018-12-12T17:19:27.690Z,3.76
2018-12-12T17:24:23.757Z,3.91
2018-12-12T17:29:19.822Z,3.93
2018-12-12T17:34:15.889Z,3.79
2018-12-12T17:39:11.942Z,4.12
2018-12-12T17:44:07.975Z,3.88
2018-12-12T17:49:04.015Z,4.12
2018-12-12T17:54:00.082Z,3.92
2018-12-12T17:58:56.373Z,3.73
2018-12-12T18:03:52.903Z,3.69
2018-12-12T18:08:49.999Z,3.78
2018-12-12T18:13:47.070Z,3.80
2018-12-12T18:18:44.239Z,3.87
2018-12-12T18:23:40.801Z,3.87
2018-12-12T18:28:36.908Z,3.80
2018-12-12T18:33:33.804Z,3.80
2018-12-12T18:38:30.390Z,3.67
2018-12-12T18:43:26.386Z,3.69
2018-12-12T18:48:22.398Z,3.85
2018-12-12T18:53:18.410Z,3.96
2018-12-12T18:58:14.425Z,4.07
2018-12-12T19:03:12.279Z,4.12
2018-12-12T19:08:09.434Z,4.17
2018-12-12T19:13:06.665Z,4.14
2018-12-12T19:18:08.524Z,4.29
2018-12-12T19:23:08.815Z,4.19
2018-12-12T19:28:07.565Z,4.21
2018-12-12T19:33:06.236Z,4.31
2018-12-12T19:38:05.666Z,4.20
2018-12-12T19:43:04.383Z,4.04
2018-12-12T19:48:00.961Z,4.16
2018-12-12T19:52:57.322Z,4.12
2018-12-12T19:57:53.683Z,4.07
2018-12-12T20:02:51.897Z,4.22
2018-12-12T20:07:48.069Z,4.22
2018-12-12T20:12:44.106Z,4.34
2018-12-12T20:17:40.242Z,4.20
2018-12-12T20:22:38.763Z,4.15
2018-12-12T20:27:34.812Z,4.12
2018-12-12T20:32:33.755Z,4.16
2018-12-12T20:37:31.375Z,4.32
2018-12-12T20:42:27.454Z,4.30
2018-12-12T20:47:23.522Z,4.26
2018-12-12T20:52:19.607Z,4.15
2018-12-12T20:57:15.846Z,4.27
2018-12-12T21:02:14.445Z,4.34
2018-12-12T21:07:11.541Z,4.46
2018-12-12T21:12:08.768Z,4.16
2018-12-12T21:17:04.909Z,4.14
2018-12-12T21:22:01.053Z,4.07
2018-12-12T21:26:57.129Z,4.09
2018-12-12T21:32:01.306Z,4.09
2018-12-12T21:36:57.452Z,4.07
2018-12-12T21:41:53.469Z,3.98
2018-12-12T21:46:49.528Z,3.97
2018-12-12T21:51:45.549Z,3.76
2018-12-12T21:56:41.614Z,3.69
2018-12-12T22:01:38.896Z,3.73
2018-12-12T22:06:35.021Z,3.80
2018-12-12T22:22:00.115Z,3.60
2018-12-12T22:27:01.339Z,3.63
2018-12-12T22:32:11.599Z,3.42
2018-12-12T22:37:17.837Z,3.64
2018-12-12T22:42:23.159Z,3.64
2018-12-12T22:57:34.385Z,3.72
2018-12-12T23:02:37.457Z,3.82
2018-12-12T23:07:36.890Z,3.75
2018-12-12T23:12:42.858Z,3.64
2018-12-12T23:22:49.344Z,3.42
2018-12-12T23:27:51.571Z,3.24
2018-12-12T23:37:51.803Z,3.17
2018-12-12T23:42:47.998Z,3.04
2018-12-12T23:47:44.151Z,3.11
2018-12-12T23:52:40.305Z,3.11
2018-12-12T23:57:36.481Z,3.25
